Terminal Aerodrome Forecast
Issued by NWS

Home | Current Version | Previous Version | Text Only | Print | Product List | Glossary On
Versions: 1 2 3 4 5 6 7 8 9 10 11 12 13 14 15 16 17 18 19
000
FTUS41 KPBZ 171741
TAFFKL
TAF
KFKL 171741Z 1718/1818 VRB04KT P6SM SCT025 BKN100
     FM172100 17007KT P6SM VCSH OVC025
     FM172300 23006KT 2SM -SN BKN006
     FM180300 24010KT P6SM VCSH BKN015
     FM181400 26007KT P6SM BKN025=

USA.gov is the U.S. government's official web portal to all federal, state and local government web resources and services.